Time;durP1;ratioP1;P1;durP2;ratioP2;P2;SDS_P1;SDS_P2;PMS_P1;PMS_P2;Temp;Humidity;BMP_temperature;BMP_pressure;BME280_temperature;BME280_humidity;BME280_pressure;Samples;Min_cycle;Max_cycle;Signal;HPM_P1;HPM_P2
2023/01/15 00:04:37;;;;;;;66.53;52.53;;;;;;;;;;10214308;27;20668;-80
2023/01/15 00:09:31;;;;;;;68.90;54.05;;;;;;;;;;10206358;27;20048;-80
2023/01/15 00:14:26;;;;;;;65.68;54.40;;;;;;;;;;10208808;27;20059;-80
2023/01/15 00:19:19;;;;;;;67.15;54.50;;;;;;;;;;10185091;27;20040;-79
2023/01/15 00:29:26;;;;;;;71.90;56.22;;;;;;;;;;10213253;27;20078;-79
2023/01/15 00:34:20;;;;;;;70.43;53.30;;;;;;;;;;10210790;27;20112;-79
2023/01/15 00:39:13;;;;;;;66.55;54.13;;;;;;;;;;10211031;27;20075;-79
2023/01/15 00:44:06;;;;;;;68.10;53.70;;;;;;;;;;10204246;27;20059;-79
2023/01/15 00:48:59;;;;;;;68.20;53.08;;;;;;;;;;10179055;28;20066;-79
2023/01/15 00:53:53;;;;;;;65.70;52.53;;;;;;;;;;10174772;28;20052;-79
2023/01/15 00:58:47;;;;;;;60.50;47.60;;;;;;;;;;10179107;28;20543;-77
2023/01/15 01:03:40;;;;;;;58.60;48.88;;;;;;;;;;10175656;28;20070;-77
2023/01/15 01:08:35;;;;;;;60.13;46.95;;;;;;;;;;10160066;28;20216;-77
2023/01/15 01:13:32;;;;;;;56.45;44.50;;;;;;;;;;10174140;28;20075;-76
2023/01/15 01:18:25;;;;;;;62.60;47.53;;;;;;;;;;10173772;28;20054;-77
2023/01/15 01:23:18;;;;;;;59.90;43.08;;;;;;;;;;10179552;28;20044;-76
2023/01/15 01:28:12;;;;;;;51.35;43.45;;;;;;;;;;10179725;28;20087;-76
2023/01/15 01:33:05;;;;;;;56.63;45.55;;;;;;;;;;10164326;28;20050;-76
2023/01/15 01:37:59;;;;;;;57.13;46.38;;;;;;;;;;10165815;28;20044;-75
2023/01/15 01:42:51;;;;;;;58.70;44.97;;;;;;;;;;10182646;28;20048;-76
2023/01/15 01:47:44;;;;;;;52.13;44.97;;;;;;;;;;10211242;28;20574;-75
2023/01/15 01:52:56;;;;;;;58.78;48.50;;;;;;;;;;10204799;28;20074;-75
2023/01/15 01:57:52;;;;;;;59.33;49.17;;;;;;;;;;10187796;27;20048;-75
2023/01/15 02:02:46;;;;;;;63.17;49.42;;;;;;;;;;10202672;27;20444;-75
2023/01/15 02:07:40;;;;;;;73.18;47.05;;;;;;;;;;10205386;27;20044;-74
2023/01/15 02:12:36;;;;;;;60.25;50.42;;;;;;;;;;10210801;27;20465;-73
2023/01/15 02:17:37;;;;;;;62.70;47.58;;;;;;;;;;10204999;28;20043;-76
2023/01/15 02:23:07;;;;;;;63.65;48.95;;;;;;;;;;10198330;27;20565;-77
2023/01/15 02:28:26;;;;;;;63.13;49.83;;;;;;;;;;10226241;27;20051;-77
2023/01/15 02:34:02;;;;;;;60.28;46.38;;;;;;;;;;10186017;27;20130;-77
2023/01/15 02:39:37;;;;;;;72.43;48.72;;;;;;;;;;10203778;27;20454;-77
2023/01/15 02:44:52;;;;;;;59.78;46.47;;;;;;;;;;10219896;27;20162;-77
2023/01/15 02:50:06;;;;;;;60.38;49.08;;;;;;;;;;10203630;27;20121;-77
2023/01/15 02:55:43;;;;;;;56.63;45.55;;;;;;;;;;10191207;27;20070;-77
2023/01/15 03:00:40;;;;;;;57.92;44.95;;;;;;;;;;10206162;27;20044;-78
2023/01/15 03:06:01;;;;;;;59.38;45.60;;;;;;;;;;10187611;27;20051;-78
2023/01/15 03:11:07;;;;;;;59.95;47.75;;;;;;;;;;10199529;27;20052;-78
2023/01/15 03:16:36;;;;;;;64.57;50.75;;;;;;;;;;10201666;27;20046;-79
2023/01/15 03:21:58;;;;;;;60.42;47.30;;;;;;;;;;10180129;27;20104;-78
2023/01/15 03:26:52;;;;;;;55.20;43.00;;;;;;;;;;10221604;27;20063;-78
2023/01/15 03:31:48;;;;;;;52.80;42.22;;;;;;;;;;10209100;27;20039;-78
2023/01/15 03:36:43;;;;;;;61.05;47.47;;;;;;;;;;10219398;27;20109;-78
2023/01/15 03:42:14;;;;;;;51.92;43.92;;;;;;;;;;10208181;27;20067;-79
2023/01/15 03:47:34;;;;;;;55.60;46.75;;;;;;;;;;10192365;27;20059;-79
2023/01/15 03:52:45;;;;;;;54.25;46.50;;;;;;;;;;10169843;27;20055;-75
2023/01/15 03:58:07;;;;;;;53.45;44.47;;;;;;;;;;10193914;27;20039;-75
2023/01/15 04:03:05;;;;;;;62.28;46.67;;;;;;;;;;10196545;28;20043;-77
2023/01/15 04:08:00;;;;;;;53.33;44.83;;;;;;;;;;10203132;27;20044;-77
2023/01/15 04:12:55;;;;;;;50.63;43.50;;;;;;;;;;10201071;27;20105;-77
2023/01/15 04:17:49;;;;;;;53.40;44.55;;;;;;;;;;10214417;27;20082;-76
2023/01/15 04:22:43;;;;;;;53.60;46.85;;;;;;;;;;10196658;27;20545;-76
2023/01/15 04:27:37;;;;;;;52.63;44.55;;;;;;;;;;10210437;27;20078;-77
2023/01/15 04:32:31;;;;;;;55.17;43.25;;;;;;;;;;10211753;27;20534;-76
2023/01/15 04:37:25;;;;;;;59.88;45.78;;;;;;;;;;10223484;27;20039;-74
2023/01/15 04:47:30;;;;;;;55.67;45.88;;;;;;;;;;10186185;28;20056;-74
2023/01/15 04:52:24;;;;;;;51.70;44.70;;;;;;;;;;10180523;28;20074;-74
2023/01/15 04:57:18;;;;;;;55.15;44.80;;;;;;;;;;10180308;28;20043;-73
2023/01/15 05:02:12;;;;;;;60.40;46.10;;;;;;;;;;10180201;28;22629;-73
2023/01/15 05:07:07;;;;;;;53.10;43.85;;;;;;;;;;10183160;28;20044;-73
2023/01/15 05:12:00;;;;;;;57.97;45.22;;;;;;;;;;10164659;28;20397;-73
2023/01/15 05:16:55;;;;;;;54.95;42.22;;;;;;;;;;10181531;28;20508;-73
2023/01/15 05:21:47;;;;;;;54.05;41.92;;;;;;;;;;10178560;28;20067;-73
2023/01/15 05:26:42;;;;;;;55.50;41.05;;;;;;;;;;10180515;28;20083;-73
2023/01/15 05:31:36;;;;;;;51.97;40.38;;;;;;;;;;10176096;28;20062;-73
2023/01/15 05:36:31;;;;;;;50.90;41.97;;;;;;;;;;10181599;28;20525;-72
2023/01/15 05:46:38;;;;;;;55.17;42.80;;;;;;;;;;10181148;28;20468;-73
2023/01/15 05:51:31;;;;;;;52.53;44.28;;;;;;;;;;10181056;28;20048;-73
2023/01/15 05:56:25;;;;;;;56.78;46.55;;;;;;;;;;10165080;28;20047;-73
2023/01/15 06:01:19;;;;;;;53.65;43.80;;;;;;;;;;10181961;28;20044;-73
2023/01/15 06:06:16;;;;;;;57.42;46.65;;;;;;;;;;10178709;28;20044;-81
2023/01/15 06:11:10;;;;;;;56.58;46.55;;;;;;;;;;10167399;28;20127;-82
2023/01/15 06:16:05;;;;;;;63.20;47.88;;;;;;;;;;10184615;28;20056;-75
2023/01/15 06:21:03;;;;;;;56.72;45.88;;;;;;;;;;10183691;28;20060;-76
2023/01/15 06:26:02;;;;;;;60.30;49.25;;;;;;;;;;10180042;28;20080;-76
2023/01/15 06:30:55;;;;;;;60.58;48.10;;;;;;;;;;10183958;28;20044;-77
2023/01/15 06:35:48;;;;;;;63.35;48.72;;;;;;;;;;10182862;28;20072;-77
2023/01/15 06:40:42;;;;;;;59.75;50.60;;;;;;;;;;10167149;28;20069;-77
2023/01/15 06:50:49;;;;;;;62.80;50.33;;;;;;;;;;10197013;28;20040;-78
2023/01/15 06:55:42;;;;;;;66.10;49.08;;;;;;;;;;10225391;27;20154;-76
2023/01/15 07:00:35;;;;;;;61.60;49.65;;;;;;;;;;10228192;28;20043;-77
2023/01/15 07:05:29;;;;;;;59.90;51.90;;;;;;;;;;10221930;27;20044;-78
2023/01/15 07:10:23;;;;;;;65.72;50.67;;;;;;;;;;10232318;27;20059;-77
2023/01/15 07:15:18;;;;;;;58.33;49.38;;;;;;;;;;10229173;27;20501;-77
2023/01/15 07:20:13;;;;;;;66.55;47.55;;;;;;;;;;10202025;28;20050;-76
2023/01/15 07:25:10;;;;;;;57.45;46.72;;;;;;;;;;10214153;27;20067;-76
2023/01/15 07:30:06;;;;;;;55.60;44.95;;;;;;;;;;10210673;27;20514;-75
2023/01/15 07:34:59;;;;;;;52.75;44.85;;;;;;;;;;10217353;28;20071;-79
2023/01/15 07:39:52;;;;;;;60.65;47.42;;;;;;;;;;10218631;27;20040;-78
2023/01/15 07:50:20;;;;;;;56.92;48.15;;;;;;;;;;10100564;28;20065;-73
2023/01/15 07:55:14;;;;;;;64.72;49.97;;;;;;;;;;10178431;28;20043;-77
2023/01/15 08:00:20;;;;;;;59.72;50.60;;;;;;;;;;10226468;27;20078;-73
2023/01/15 08:05:14;;;;;;;61.85;50.53;;;;;;;;;;10211458;27;20591;-69
2023/01/15 08:10:13;;;;;;;60.45;50.53;;;;;;;;;;10215435;27;20048;-69
2023/01/15 08:15:12;;;;;;;69.47;54.40;;;;;;;;;;10218014;28;20423;-69
2023/01/15 08:20:10;;;;;;;65.28;54.92;;;;;;;;;;10216214;27;20090;-69
2023/01/15 08:25:05;;;;;;;64.30;53.80;;;;;;;;;;10208219;27;20076;-70
2023/01/15 08:29:58;;;;;;;71.75;57.72;;;;;;;;;;10226850;28;20133;-67
2023/01/15 08:34:52;;;;;;;75.63;58.47;;;;;;;;;;10210944;27;20499;-68
2023/01/15 08:39:46;;;;;;;68.38;54.20;;;;;;;;;;10218724;27;20043;-68
2023/01/15 08:44:40;;;;;;;67.80;54.83;;;;;;;;;;10203473;28;20062;-68
2023/01/15 08:49:34;;;;;;;61.22;50.05;;;;;;;;;;10207593;28;20046;-68
2023/01/15 08:54:29;;;;;;;65.07;51.58;;;;;;;;;;10217233;27;20494;-67
2023/01/15 08:59:22;;;;;;;59.75;49.60;;;;;;;;;;10221790;27;20052;-69
2023/01/15 09:04:17;;;;;;;53.15;44.35;;;;;;;;;;10206218;28;20040;-68
2023/01/15 09:09:11;;;;;;;57.00;47.55;;;;;;;;;;10211804;28;20043;-68
2023/01/15 09:14:07;;;;;;;61.30;50.30;;;;;;;;;;10208102;28;20043;-69
2023/01/15 09:19:20;;;;;;;62.40;50.10;;;;;;;;;;10214062;28;20131;-69
2023/01/15 09:24:15;;;;;;;67.55;52.88;;;;;;;;;;10211320;28;20132;-68
2023/01/15 09:29:09;;;;;;;62.00;50.15;;;;;;;;;;10208162;28;20071;-69
2023/01/15 09:34:03;;;;;;;65.85;56.63;;;;;;;;;;10204268;28;20040;-69
2023/01/15 09:38:58;;;;;;;63.28;53.72;;;;;;;;;;10207076;28;20051;-68
2023/01/15 09:43:59;;;;;;;59.90;52.13;;;;;;;;;;10211524;28;20062;-69
2023/01/15 09:49:05;;;;;;;66.53;53.30;;;;;;;;;;10209982;28;20080;-69
2023/01/15 09:54:35;;;;;;;65.15;54.45;;;;;;;;;;10209254;28;20052;-68
2023/01/15 09:59:35;;;;;;;61.93;53.93;;;;;;;;;;10212697;28;20123;-68
2023/01/15 10:04:37;;;;;;;66.68;54.83;;;;;;;;;;10208294;28;20044;-69
2023/01/15 10:09:36;;;;;;;65.32;53.63;;;;;;;;;;10194814;28;20057;-69
2023/01/15 10:14:57;;;;;;;60.55;53.20;;;;;;;;;;10193605;28;20053;-68
2023/01/15 10:19:51;;;;;;;67.30;54.22;;;;;;;;;;10202553;28;20047;-69
2023/01/15 10:24:56;;;;;;;66.13;54.65;;;;;;;;;;10217212;28;20445;-68
2023/01/15 10:29:53;;;;;;;67.47;55.53;;;;;;;;;;10200805;28;20067;-69
2023/01/15 10:34:49;;;;;;;64.25;54.13;;;;;;;;;;10197160;27;20055;-69
2023/01/15 10:40:37;;;;;;;72.70;60.83;;;;;;;;;;10216560;28;21598;-68
2023/01/15 10:45:35;;;;;;;63.15;52.47;;;;;;;;;;10160074;28;20044;-68
2023/01/15 10:50:29;;;;;;;66.38;54.83;;;;;;;;;;10177136;28;20052;-68
2023/01/15 10:55:36;;;;;;;64.75;54.38;;;;;;;;;;10176933;28;20500;-68
2023/01/15 11:00:30;;;;;;;59.25;51.05;;;;;;;;;;10177539;28;20123;-73
2023/01/15 11:05:24;;;;;;;63.67;54.65;;;;;;;;;;10174195;28;20499;-73
2023/01/15 11:10:20;;;;;;;61.60;53.70;;;;;;;;;;10177688;28;20070;-72
2023/01/15 11:20:33;;;;;;;66.95;55.95;;;;;;;;;;10172848;28;20052;-73
2023/01/15 11:25:31;;;;;;;62.10;52.50;;;;;;;;;;10175269;28;20073;-71
2023/01/15 11:30:28;;;;;;;70.40;58.83;;;;;;;;;;10175401;28;20051;-72
2023/01/15 11:35:22;;;;;;;61.63;53.92;;;;;;;;;;10179566;28;20051;-73
2023/01/15 11:40:22;;;;;;;64.85;55.55;;;;;;;;;;10176278;28;20128;-73
2023/01/15 11:50:42;;;;;;;59.80;52.40;;;;;;;;;;10219834;28;20079;-71
2023/01/15 11:55:38;;;;;;;68.50;59.63;;;;;;;;;;10206595;27;20048;-72
2023/01/15 12:00:36;;;;;;;62.22;53.92;;;;;;;;;;10228172;28;20047;-72
2023/01/15 12:05:31;;;;;;;67.93;57.13;;;;;;;;;;10206643;27;20127;-70
2023/01/15 12:15:53;;;;;;;67.00;58.15;;;;;;;;;;10219593;27;20469;-70
2023/01/15 12:21:02;;;;;;;60.90;52.03;;;;;;;;;;10211086;27;20040;-67
2023/01/15 12:26:16;;;;;;;70.90;56.90;;;;;;;;;;10215712;27;20054;-67
2023/01/15 12:31:18;;;;;;;63.97;54.22;;;;;;;;;;10215919;28;20048;-67
2023/01/15 12:36:17;;;;;;;65.68;56.80;;;;;;;;;;10216968;28;20048;-67
2023/01/15 12:41:14;;;;;;;65.60;57.55;;;;;;;;;;10216182;28;20564;-67
2023/01/15 12:46:11;;;;;;;62.28;53.35;;;;;;;;;;10219713;28;20071;-67
2023/01/15 12:51:06;;;;;;;60.42;53.78;;;;;;;;;;10223581;27;20044;-67
2023/01/15 12:56:20;;;;;;;60.85;54.40;;;;;;;;;;10211984;27;20477;-69
2023/01/15 13:01:22;;;;;;;71.28;58.00;;;;;;;;;;10216379;27;20415;-72
2023/01/15 13:06:16;;;;;;;79.30;58.72;;;;;;;;;;10219868;27;20411;-72
2023/01/15 13:11:17;;;;;;;66.63;59.30;;;;;;;;;;10194821;27;20051;-73
2023/01/15 13:16:19;;;;;;;69.88;60.65;;;;;;;;;;10211366;27;20055;-72
2023/01/15 13:21:14;;;;;;;61.35;54.15;;;;;;;;;;10198343;27;20063;-73
2023/01/15 13:26:31;;;;;;;66.05;56.55;;;;;;;;;;10215072;27;20094;-72
2023/01/15 13:31:44;;;;;;;69.28;57.95;;;;;;;;;;10211147;28;20082;-75
2023/01/15 13:36:44;;;;;;;71.35;58.25;;;;;;;;;;10216989;28;20051;-66
2023/01/15 13:47:05;;;;;;;68.00;57.97;;;;;;;;;;10218169;28;20075;-68
2023/01/15 13:52:03;;;;;;;70.63;57.28;;;;;;;;;;10218422;28;20044;-73
2023/01/15 13:57:09;;;;;;;67.75;56.72;;;;;;;;;;10209632;28;20032;-73
2023/01/15 14:02:24;;;;;;;70.55;61.33;;;;;;;;;;10215958;28;20126;-74
2023/01/15 14:07:30;;;;;;;73.25;58.95;;;;;;;;;;10214350;28;20138;-75
2023/01/15 14:12:47;;;;;;;65.88;57.22;;;;;;;;;;10216273;28;20130;-74
2023/01/15 14:18:33;;;;;;;68.82;56.92;;;;;;;;;;10193560;28;20047;-73
2023/01/15 14:23:52;;;;;;;69.65;57.38;;;;;;;;;;10210657;28;20040;-75
2023/01/15 14:29:11;;;;;;;75.53;62.30;;;;;;;;;;10201821;28;20070;-74
2023/01/15 14:34:22;;;;;;;71.07;60.00;;;;;;;;;;10212942;27;20460;-74
2023/01/15 14:39:43;;;;;;;67.65;57.88;;;;;;;;;;10220158;28;20047;-69
2023/01/15 14:44:45;;;;;;;67.97;58.33;;;;;;;;;;10208617;28;20062;-69
2023/01/15 14:49:48;;;;;;;68.35;59.63;;;;;;;;;;10177499;28;20126;-70
2023/01/15 14:54:42;;;;;;;73.18;61.70;;;;;;;;;;10158737;28;20036;-72
2023/01/15 14:59:48;;;;;;;71.78;58.72;;;;;;;;;;10172461;28;20056;-72
2023/01/15 15:04:43;;;;;;;73.88;61.67;;;;;;;;;;10159627;28;20064;-69
2023/01/15 15:09:59;;;;;;;73.40;60.70;;;;;;;;;;10182089;28;20508;-70
2023/01/15 15:15:10;;;;;;;80.78;64.03;;;;;;;;;;10181737;28;20147;-72
2023/01/15 15:20:40;;;;;;;88.07;65.75;;;;;;;;;;10177260;28;20048;-70
2023/01/15 15:25:36;;;;;;;80.07;64.80;;;;;;;;;;10177211;28;20500;-70
2023/01/15 15:30:34;;;;;;;78.22;62.95;;;;;;;;;;10164226;28;20132;-69
2023/01/15 15:35:31;;;;;;;78.22;64.65;;;;;;;;;;10161554;28;20045;-70
2023/01/15 15:40:29;;;;;;;77.85;64.88;;;;;;;;;;10159868;28;20060;-69
2023/01/15 15:50:40;;;;;;;77.57;64.13;;;;;;;;;;10179391;28;20077;-75
2023/01/15 15:55:38;;;;;;;73.32;62.05;;;;;;;;;;10159149;28;20048;-71
2023/01/15 16:00:37;;;;;;;79.05;66.03;;;;;;;;;;10178483;28;20043;-70
2023/01/15 16:05:31;;;;;;;77.03;62.75;;;;;;;;;;10174898;28;20130;-69
2023/01/15 16:10:29;;;;;;;74.55;64.20;;;;;;;;;;10175062;28;20123;-69
2023/01/15 16:15:30;;;;;;;72.00;59.42;;;;;;;;;;10162366;28;20048;-69
2023/01/15 16:20:24;;;;;;;74.47;62.55;;;;;;;;;;10159783;28;20508;-67
2023/01/15 16:25:22;;;;;;;72.20;59.90;;;;;;;;;;10159218;28;20075;-67
2023/01/15 16:30:16;;;;;;;77.13;60.83;;;;;;;;;;10177207;28;20072;-68
2023/01/15 16:35:29;;;;;;;74.03;60.67;;;;;;;;;;10173011;28;20047;-68
2023/01/15 16:40:25;;;;;;;67.63;59.67;;;;;;;;;;10151400;28;20055;-67
2023/01/15 16:45:27;;;;;;;79.90;66.93;;;;;;;;;;10155703;28;20438;-66
2023/01/15 16:50:21;;;;;;;73.82;63.03;;;;;;;;;;10178204;28;20094;-66
2023/01/15 16:55:34;;;;;;;73.97;61.53;;;;;;;;;;10179038;28;20082;-69
2023/01/15 17:00:29;;;;;;;73.25;60.75;;;;;;;;;;10174652;28;20039;-68
2023/01/15 17:05:24;;;;;;;78.35;65.82;;;;;;;;;;10175132;28;20048;-68
2023/01/15 17:10:25;;;;;;;79.07;62.95;;;;;;;;;;10163521;28;20094;-68
2023/01/15 17:15:18;;;;;;;75.40;61.80;;;;;;;;;;10187452;28;20087;-71
2023/01/15 17:20:22;;;;;;;79.15;63.88;;;;;;;;;;10177295;28;20086;-68
2023/01/15 17:25:42;;;;;;;73.50;60.53;;;;;;;;;;10176000;28;20091;-67
2023/01/15 17:30:36;;;;;;;74.47;63.08;;;;;;;;;;10172464;28;20060;-68
2023/01/15 17:35:30;;;;;;;75.63;62.50;;;;;;;;;;10173922;28;20519;-67
2023/01/15 17:40:24;;;;;;;78.05;64.93;;;;;;;;;;10178286;28;20040;-67
2023/01/15 17:45:23;;;;;;;86.20;66.00;;;;;;;;;;10187624;28;20475;-67
2023/01/15 17:50:19;;;;;;;76.32;63.90;;;;;;;;;;10218221;28;20047;-67
2023/01/15 18:05:58;;;;;;;78.75;65.03;;;;;;;;;;10212310;28;20039;-68
2023/01/15 18:10:52;;;;;;;78.07;65.05;;;;;;;;;;10216158;28;20051;-68
2023/01/15 18:15:46;;;;;;;83.68;67.40;;;;;;;;;;10214782;28;20094;-68
2023/01/15 18:20:39;;;;;;;80.72;64.15;;;;;;;;;;10211076;28;20070;-69
2023/01/15 18:25:34;;;;;;;82.43;66.03;;;;;;;;;;10204371;28;20445;-69
2023/01/15 18:30:27;;;;;;;79.15;63.17;;;;;;;;;;10214992;28;20071;-68
2023/01/15 18:35:22;;;;;;;79.03;62.92;;;;;;;;;;10238063;28;20074;-68
2023/01/15 18:40:16;;;;;;;77.63;59.83;;;;;;;;;;10244566;27;20043;-70
2023/01/15 18:50:22;;;;;;;81.65;65.93;;;;;;;;;;10239302;27;20134;-68
2023/01/15 18:55:21;;;;;;;82.25;66.57;;;;;;;;;;10231893;27;20043;-68
2023/01/15 19:00:16;;;;;;;71.97;62.65;;;;;;;;;;10227516;27;20112;-68
2023/01/15 19:05:11;;;;;;;81.65;63.83;;;;;;;;;;10232253;27;20047;-68
2023/01/15 19:10:07;;;;;;;75.80;63.08;;;;;;;;;;10245825;27;20043;-67
2023/01/15 19:20:15;;;;;;;82.15;66.60;;;;;;;;;;10236748;27;20138;-67
2023/01/15 19:25:09;;;;;;;82.72;61.53;;;;;;;;;;10244537;27;20055;-67
2023/01/15 19:30:05;;;;;;;86.15;63.38;;;;;;;;;;10230560;27;20031;-67
2023/01/15 19:34:59;;;;;;;80.82;65.18;;;;;;;;;;10232051;27;20100;-71
2023/01/15 19:39:53;;;;;;;82.63;66.47;;;;;;;;;;10211712;27;20052;-70
2023/01/15 19:55:14;;;;;;;84.53;64.20;;;;;;;;;;10221739;27;20436;-70
2023/01/15 20:00:10;;;;;;;83.30;67.82;;;;;;;;;;10206684;28;20043;-69
2023/01/15 20:05:07;;;;;;;74.78;65.60;;;;;;;;;;10198293;28;20495;-71
2023/01/15 20:10:03;;;;;;;88.30;66.68;;;;;;;;;;10199045;28;20075;-69
2023/01/15 20:14:58;;;;;;;76.53;67.97;;;;;;;;;;10194782;28;20131;-68
2023/01/15 20:19:53;;;;;;;81.38;63.90;;;;;;;;;;10196523;28;20072;-69
2023/01/15 20:24:47;;;;;;;85.28;68.93;;;;;;;;;;10197162;28;20049;-69
2023/01/15 20:29:41;;;;;;;80.65;66.38;;;;;;;;;;10200133;28;20047;-68
2023/01/15 20:34:37;;;;;;;85.32;67.63;;;;;;;;;;10187565;28;20058;-69
2023/01/15 20:39:31;;;;;;;74.10;63.53;;;;;;;;;;10201114;28;20050;-69
2023/01/15 20:49:37;;;;;;;76.60;63.67;;;;;;;;;;10200807;28;20093;-70
2023/01/15 20:54:31;;;;;;;80.20;66.60;;;;;;;;;;10199338;28;20097;-69
2023/01/15 20:59:24;;;;;;;77.82;63.88;;;;;;;;;;10196958;28;20127;-70
2023/01/15 21:04:19;;;;;;;72.28;60.78;;;;;;;;;;10199192;28;20094;-69
2023/01/15 21:09:13;;;;;;;76.97;62.33;;;;;;;;;;10202343;28;20051;-69
2023/01/15 21:14:07;;;;;;;73.95;62.92;;;;;;;;;;10203690;28;20395;-70
2023/01/15 21:19:03;;;;;;;77.10;65.32;;;;;;;;;;10205225;28;20043;-70
2023/01/15 21:23:59;;;;;;;73.30;61.03;;;;;;;;;;10219099;28;20100;-70
2023/01/15 21:28:53;;;;;;;71.40;60.63;;;;;;;;;;10193316;28;20545;-71
2023/01/15 21:33:48;;;;;;;66.63;59.00;;;;;;;;;;10201063;28;20507;-72
2023/01/15 21:38:42;;;;;;;68.18;59.80;;;;;;;;;;10213448;28;20067;-71
2023/01/15 21:48:50;;;;;;;61.33;54.50;;;;;;;;;;10198864;28;20051;-75
2023/01/15 21:53:44;;;;;;;61.17;53.38;;;;;;;;;;10214577;28;20461;-70
2023/01/15 21:58:39;;;;;;;67.38;55.63;;;;;;;;;;10216387;28;20044;-70
2023/01/15 22:03:36;;;;;;;65.50;58.33;;;;;;;;;;10217340;28;20050;-69
2023/01/15 22:08:30;;;;;;;63.65;55.67;;;;;;;;;;10199304;28;20393;-69
2023/01/15 22:13:24;;;;;;;71.63;61.00;;;;;;;;;;10212169;28;20063;-69
2023/01/15 22:18:18;;;;;;;73.18;62.38;;;;;;;;;;10223876;28;20044;-69
2023/01/15 22:23:12;;;;;;;68.72;58.40;;;;;;;;;;10203997;28;20052;-69
2023/01/15 22:28:06;;;;;;;66.63;59.15;;;;;;;;;;10218970;28;20134;-69
2023/01/15 22:33:00;;;;;;;68.45;59.47;;;;;;;;;;10228363;27;20051;-69
2023/01/15 22:37:54;;;;;;;67.60;60.13;;;;;;;;;;10227608;28;20048;-69
2023/01/15 22:42:47;;;;;;;64.20;55.58;;;;;;;;;;10205275;27;20059;-69
2023/01/15 22:47:41;;;;;;;70.78;55.75;;;;;;;;;;10234698;27;20063;-69
2023/01/15 22:52:37;;;;;;;62.50;55.85;;;;;;;;;;10232954;28;20124;-69
2023/01/15 22:57:31;;;;;;;56.72;50.05;;;;;;;;;;10232669;28;20047;-69
2023/01/15 23:07:39;;;;;;;49.88;44.35;;;;;;;;;;10224023;28;20483;-69
2023/01/15 23:12:34;;;;;;;46.42;41.47;;;;;;;;;;10230636;28;20396;-69
2023/01/15 23:17:28;;;;;;;52.65;45.80;;;;;;;;;;10225414;28;20052;-69
2023/01/15 23:22:22;;;;;;;50.13;44.88;;;;;;;;;;10226174;28;20043;-69
2023/01/15 23:27:15;;;;;;;47.05;41.55;;;;;;;;;;10223196;28;20054;-68
2023/01/15 23:32:09;;;;;;;46.97;42.05;;;;;;;;;;10223458;28;20069;-70
2023/01/15 23:37:03;;;;;;;46.80;41.80;;;;;;;;;;10208790;27;20052;-70
2023/01/15 23:47:09;;;;;;;50.83;43.95;;;;;;;;;;10184605;28;20071;-69
2023/01/15 23:52:05;;;;;;;49.53;42.65;;;;;;;;;;10179331;28;20059;-70
2023/01/15 23:57:02;;;;;;;48.50;42.85;;;;;;;;;;10178679;28;20079;-69
